Time;durP1;ratioP1;P1;durP2;ratioP2;P2;SDS_P1;SDS_P2;PMS_P1;PMS_P2;Temp;Humidity;BMP_temperature;BMP_pressure;BME280_temperature;BME280_humidity;BME280_pressure;Samples;Min_cycle;Max_cycle;Signal;HPM_P1;HPM_P2
2022/09/02 00:02:24;;;;;;;2.50;2.27;;;17.30;99.90;;;;;;5100493;28;20463;-56
2022/09/02 00:04:51;;;;;;;3.50;1.90;;;17.30;99.90;;;;;;5101182;28;20832;-54
2022/09/02 00:07:20;;;;;;;2.17;1.97;;;17.40;99.90;;;;;;5101177;28;20465;-58
2022/09/02 00:09:48;;;;;;;2.87;2.10;;;17.40;99.90;;;;;;5101205;28;20509;-57
2022/09/02 00:12:15;;;;;;;2.07;1.87;;;17.40;99.90;;;;;;5100442;28;20502;-54
2022/09/02 00:14:42;;;;;;;2.80;2.30;;;17.40;99.90;;;;;;5100575;28;20503;-56
2022/09/02 00:17:10;;;;;;;2.57;2.33;;;17.40;99.90;;;;;;5100767;28;20525;-55
2022/09/02 00:19:37;;;;;;;2.30;2.10;;;17.40;99.90;;;;;;5101485;28;20472;-57
2022/09/02 00:22:09;;;;;;;7.30;2.37;;;17.40;99.90;;;;;;5100374;28;20473;-54
2022/09/02 00:24:39;;;;;;;2.43;2.20;;;17.30;99.90;;;;;;5100625;28;20530;-53
2022/09/02 00:27:06;;;;;;;3.10;2.10;;;17.30;99.90;;;;;;5095325;28;20498;-56
2022/09/02 00:29:33;;;;;;;3.10;1.87;;;17.30;99.90;;;;;;5099685;28;20464;-56
2022/09/02 00:32:04;;;;;;;3.70;1.80;;;17.30;99.90;;;;;;5099707;28;20456;-56
2022/09/02 00:34:31;;;;;;;2.87;2.63;;;17.30;99.90;;;;;;5099342;28;20767;-53
2022/09/02 00:36:59;;;;;;;8.47;2.40;;;17.30;99.90;;;;;;5099468;28;20555;-57
2022/09/02 00:39:29;;;;;;;3.50;2.00;;;17.30;99.90;;;;;;5100800;28;20434;-57
2022/09/02 00:42:00;;;;;;;2.30;2.10;;;17.30;99.90;;;;;;5100493;28;20582;-57
2022/09/02 00:44:27;;;;;;;3.03;2.30;;;17.30;99.90;;;;;;5100181;28;20511;-55
2022/09/02 00:46:54;;;;;;;4.33;2.30;;;17.40;99.90;;;;;;5100576;28;20456;-55
2022/09/02 00:49:36;;;;;;;1.60;1.50;;;17.30;99.90;;;;;;5100250;28;20533;-54
2022/09/02 00:52:07;;;;;;;2.23;2.03;;;17.40;99.90;;;;;;5099565;28;20456;-55
2022/09/02 00:54:39;;;;;;;2.93;1.90;;;17.30;99.90;;;;;;5080260;28;20469;-55
2022/09/02 00:57:11;;;;;;;3.43;2.40;;;17.30;99.90;;;;;;5093812;28;20518;-56
2022/09/02 00:59:51;;;;;;;3.37;2.20;;;17.30;99.90;;;;;;5100250;28;20893;-57
2022/09/02 01:02:22;;;;;;;2.20;2.00;;;17.30;99.90;;;;;;5099929;28;20488;-54
2022/09/02 01:04:50;;;;;;;1.90;1.70;;;17.20;99.90;;;;;;5099705;28;20471;-57
2022/09/02 01:07:17;;;;;;;2.30;2.10;;;17.20;99.90;;;;;;5099419;28;20551;-51
2022/09/02 01:09:44;;;;;;;2.30;2.10;;;17.10;99.90;;;;;;5099391;28;20435;-54
2022/09/02 01:12:13;;;;;;;2.13;1.93;;;17.10;99.90;;;;;;5099725;28;20435;-53
2022/09/02 01:14:41;;;;;;;1.80;1.70;;;17.20;99.90;;;;;;5099876;28;20488;-56
2022/09/02 01:17:10;;;;;;;1.83;1.73;;;17.10;99.90;;;;;;5099791;28;20439;-57
2022/09/02 01:19:44;;;;;;;4.00;2.40;;;17.10;99.90;;;;;;5098646;28;20740;-57
2022/09/02 01:22:19;;;;;;;3.07;1.73;;;17.10;99.90;;;;;;5099119;28;20484;-57
2022/09/02 01:24:47;;;;;;;5.50;2.33;;;17.10;99.90;;;;;;5099344;28;20760;-56
2022/09/02 01:27:21;;;;;;;3.37;2.10;;;17.10;99.90;;;;;;5099589;28;20544;-57
2022/09/02 01:29:52;;;;;;;5.30;2.10;;;17.20;99.90;;;;;;5098531;28;20476;-57
2022/09/02 01:32:19;;;;;;;2.63;2.33;;;17.20;99.90;;;;;;5100186;28;20460;-54
2022/09/02 01:34:47;;;;;;;2.67;2.20;;;17.20;99.90;;;;;;5099327;28;20470;-55
2022/09/02 01:37:14;;;;;;;3.70;2.10;;;17.30;99.90;;;;;;5099495;28;20464;-56
2022/09/02 01:39:45;;;;;;;2.40;2.10;;;17.30;99.90;;;;;;5099237;28;20457;-58
2022/09/02 01:42:12;;;;;;;2.20;2.00;;;17.30;99.90;;;;;;5099991;28;20984;-57
2022/09/02 01:44:42;;;;;;;3.20;1.80;;;17.30;99.90;;;;;;5099104;28;20436;-58
2022/09/02 01:47:10;;;;;;;4.90;2.13;;;17.40;99.90;;;;;;5099646;28;20464;-56
2022/09/02 01:49:38;;;;;;;2.93;2.00;;;17.40;99.90;;;;;;5098724;28;20460;-56
2022/09/02 01:52:05;;;;;;;2.33;2.03;;;17.40;99.90;;;;;;5095081;28;20455;-57
2022/09/02 01:54:33;;;;;;;4.50;2.20;;;17.40;99.90;;;;;;5099318;28;20438;-53
2022/09/02 01:57:03;;;;;;;2.67;2.00;;;17.40;99.90;;;;;;5098830;28;20461;-55
2022/09/02 01:59:33;;;;;;;3.00;2.20;;;17.40;99.90;;;;;;5099422;28;20546;-53
2022/09/02 02:02:00;;;;;;;2.37;2.07;;;17.20;99.90;;;;;;5097615;28;20575;-56
2022/09/02 02:04:29;;;;;;;3.00;2.53;;;17.20;99.90;;;;;;5097316;28;20457;-54
2022/09/02 02:06:56;;;;;;;2.50;2.30;;;17.00;99.90;;;;;;5098184;28;20463;-57
2022/09/02 02:09:26;;;;;;;4.37;2.37;;;17.10;99.90;;;;;;5099149;28;20464;-58
2022/09/02 02:11:57;;;;;;;2.40;2.20;;;17.20;99.90;;;;;;5098242;28;20457;-52
2022/09/02 02:14:26;;;;;;;2.50;2.30;;;17.30;99.90;;;;;;5098895;28;20977;-56
2022/09/02 02:16:53;;;;;;;3.43;2.63;;;17.30;99.90;;;;;;5098956;28;20509;-56
2022/09/02 02:19:22;;;;;;;3.10;2.20;;;17.10;99.90;;;;;;5098802;28;20461;-58
2022/09/02 02:21:50;;;;;;;3.07;2.10;;;17.00;99.90;;;;;;5098330;28;20747;-58
2022/09/02 02:24:17;;;;;;;2.70;2.00;;;17.00;99.90;;;;;;5098436;28;20538;-55
2022/09/02 02:26:45;;;;;;;3.03;2.00;;;17.00;99.90;;;;;;5098520;28;20484;-58
2022/09/02 02:29:13;;;;;;;2.40;2.20;;;17.20;99.90;;;;;;5098553;28;20464;-56
2022/09/02 02:31:44;;;;;;;2.70;1.90;;;17.20;99.90;;;;;;5098493;28;20433;-57
2022/09/02 02:34:12;;;;;;;2.53;2.30;;;17.10;99.90;;;;;;5098396;28;20461;-51
2022/09/02 02:36:42;;;;;;;2.60;2.13;;;17.00;99.90;;;;;;5097887;28;20439;-52
2022/09/02 02:39:12;;;;;;;3.23;2.73;;;17.00;99.90;;;;;;5096267;28;20503;-58
2022/09/02 02:41:40;;;;;;;2.63;2.43;;;16.80;99.90;;;;;;5098371;28;20789;-56
2022/09/02 02:44:08;;;;;;;2.17;1.97;;;16.60;99.90;;;;;;5098492;28;20460;-58
2022/09/02 02:46:38;;;;;;;2.63;2.20;;;16.40;99.90;;;;;;5097683;28;20427;-57
2022/09/02 02:49:08;;;;;;;2.43;1.77;;;16.30;99.90;;;;;;5097500;28;20463;-57
2022/09/02 02:51:39;;;;;;;2.80;2.53;;;16.30;99.90;;;;;;5096893;28;20459;-58
2022/09/02 02:54:07;;;;;;;4.67;2.60;;;16.30;99.90;;;;;;5096752;28;20904;-57
2022/09/02 02:56:34;;;;;;;2.10;1.90;;;16.20;99.90;;;;;;5095383;28;20481;-54
2022/09/02 02:59:02;;;;;;;3.23;2.30;;;16.30;99.90;;;;;;5096544;28;20750;-52
2022/09/02 03:01:33;;;;;;;3.17;2.30;;;16.20;99.90;;;;;;5097796;28;20455;-58
2022/09/02 03:04:01;;;;;;;3.07;2.70;;;16.00;99.90;;;;;;5095993;28;20737;-54
2022/09/02 03:06:29;;;;;;;4.77;2.10;;;16.00;99.90;;;;;;5096205;28;20550;-53
2022/09/02 03:08:59;;;;;;;4.30;2.53;;;16.00;99.90;;;;;;5095290;28;20468;-51
2022/09/02 03:11:26;;;;;;;4.23;2.33;;;16.00;99.90;;;;;;5096828;28;20509;-53
2022/09/02 03:13:55;;;;;;;3.60;2.20;;;15.80;99.90;;;;;;5097365;28;20513;-58
2022/09/02 03:16:25;;;;;;;2.63;2.10;;;15.80;99.90;;;;;;5097582;28;20534;-52
2022/09/02 03:18:52;;;;;;;7.33;2.40;;;15.90;99.90;;;;;;5096378;28;20467;-55
2022/09/02 03:21:20;;;;;;;2.30;2.10;;;15.90;99.90;;;;;;5096555;28;20488;-57
2022/09/02 03:23:49;;;;;;;2.40;2.20;;;15.90;99.90;;;;;;5096513;28;20491;-55
2022/09/02 03:26:20;;;;;;;3.63;2.47;;;15.80;99.90;;;;;;5097554;28;20468;-55
2022/09/02 03:28:48;;;;;;;2.40;1.97;;;15.70;99.90;;;;;;5096778;28;20431;-54
2022/09/02 03:31:22;;;;;;;2.23;1.97;;;15.70;99.90;;;;;;5113753;28;20442;-57
2022/09/02 03:33:49;;;;;;;3.00;2.20;;;15.70;99.90;;;;;;5100766;28;20885;-55
2022/09/02 03:36:22;;;;;;;3.63;2.40;;;15.70;99.90;;;;;;5097013;28;20558;-55
2022/09/02 03:38:51;;;;;;;2.63;2.33;;;15.70;99.90;;;;;;5095717;28;20466;-54
2022/09/02 03:41:22;;;;;;;3.03;2.00;;;15.60;99.90;;;;;;5096023;28;20908;-55
2022/09/02 03:43:50;;;;;;;3.30;2.57;;;15.70;99.90;;;;;;5097600;28;20507;-55
2022/09/02 03:46:17;;;;;;;2.20;2.00;;;15.80;99.90;;;;;;5097482;28;20460;-55
2022/09/02 03:48:45;;;;;;;2.53;2.27;;;15.80;99.90;;;;;;5097090;28;20555;-57
2022/09/02 03:51:13;;;;;;;3.80;2.33;;;15.90;99.90;;;;;;5096687;28;20463;-57
2022/09/02 03:53:40;;;;;;;3.23;2.30;;;15.90;99.90;;;;;;5096375;28;20457;-54
2022/09/02 03:56:11;;;;;;;2.73;2.30;;;15.90;99.90;;;;;;5097347;28;20460;-58
2022/09/02 03:58:39;;;;;;;2.63;2.30;;;15.90;99.90;;;;;;5097469;28;20442;-57
2022/09/02 04:01:06;;;;;;;3.27;2.40;;;15.90;99.90;;;;;;5096122;28;20464;-54
2022/09/02 04:03:34;;;;;;;2.87;2.43;;;16.00;99.90;;;;;;5096791;28;20443;-56
2022/09/02 04:06:02;;;;;;;3.83;2.20;;;15.90;99.90;;;;;;5097327;28;20464;-52
2022/09/02 04:08:30;;;;;;;2.53;2.30;;;15.90;99.90;;;;;;5096725;28;20551;-52
2022/09/02 04:10:57;;;;;;;4.40;2.67;;;15.90;99.90;;;;;;5096103;28;20435;-55
2022/09/02 04:13:28;;;;;;;4.27;2.83;;;15.90;99.90;;;;;;5096774;28;20460;-58
2022/09/02 04:15:56;;;;;;;3.13;2.43;;;15.80;99.90;;;;;;5097177;28;20431;-56
2022/09/02 04:18:24;;;;;;;2.80;2.47;;;15.70;99.90;;;;;;5097259;28;20554;-56
2022/09/02 04:20:51;;;;;;;2.40;2.20;;;15.70;99.90;;;;;;5095759;28;20909;-55
2022/09/02 04:23:18;;;;;;;3.23;2.90;;;15.70;99.90;;;;;;5095480;28;20932;-55
2022/09/02 04:25:45;;;;;;;3.10;2.90;;;15.60;99.90;;;;;;5094458;28;20434;-55
2022/09/02 04:28:13;;;;;;;4.90;2.70;;;15.60;99.90;;;;;;5096053;28;20466;-57
2022/09/02 04:30:43;;;;;;;3.80;2.60;;;15.60;99.90;;;;;;5095449;28;20465;-55
2022/09/02 04:33:11;;;;;;;6.43;3.17;;;15.50;99.90;;;;;;5094990;28;20452;-51
2022/09/02 04:35:40;;;;;;;4.47;3.00;;;15.50;99.90;;;;;;5095577;28;20871;-57
2022/09/02 04:38:07;;;;;;;2.83;2.63;;;15.50;99.90;;;;;;5096717;28;20847;-54
2022/09/02 04:40:35;;;;;;;3.13;2.10;;;15.40;99.90;;;;;;5096298;28;20800;-56
2022/09/02 04:43:03;;;;;;;3.27;2.27;;;15.40;99.90;;;;;;5095974;28;20855;-52
2022/09/02 04:45:33;;;;;;;3.37;2.07;;;15.40;99.90;;;;;;5096039;28;20464;-54
2022/09/02 04:48:02;;;;;;;2.73;2.53;;;15.50;99.90;;;;;;5099863;28;20552;-58
2022/09/02 04:50:29;;;;;;;4.40;3.07;;;15.40;99.90;;;;;;5100075;28;20515;-54
2022/09/02 04:52:56;;;;;;;3.87;2.63;;;15.50;99.90;;;;;;5098589;28;20914;-51
2022/09/02 04:55:26;;;;;;;3.20;2.87;;;15.60;99.90;;;;;;5098843;28;20431;-53
2022/09/02 04:57:53;;;;;;;2.93;2.73;;;15.60;99.90;;;;;;5098530;28;20547;-56
2022/09/02 05:00:24;;;;;;;2.90;2.60;;;15.60;99.90;;;;;;5098831;28;20555;-54
2022/09/02 05:02:51;;;;;;;3.23;2.30;;;15.70;99.90;;;;;;5095421;28;20458;-55
2022/09/02 05:05:20;;;;;;;11.40;3.70;;;15.70;99.90;;;;;;5098086;28;20431;-56
2022/09/02 05:07:47;;;;;;;4.23;3.00;;;15.70;99.90;;;;;;5098182;28;20504;-54
2022/09/02 05:10:15;;;;;;;2.90;2.60;;;15.60;99.90;;;;;;5098330;28;20467;-54
2022/09/02 10:50:22;;;;;;;2.83;2.20;;;25.20;99.90;;;;;;3501758;28;22422;-53
2022/09/02 10:53:34;;;;;;;3.30;3.10;;;25.10;99.90;;;;;;5098049;28;20899;-57
2022/09/02 10:56:07;;;;;;;2.40;2.20;;;25.00;99.90;;;;;;5077344;28;20443;-55
2022/09/02 10:58:48;;;;;;;2.83;2.53;;;25.00;99.90;;;;;;5096215;28;20467;-56
2022/09/02 11:01:21;;;;;;;2.50;2.30;;;25.10;99.90;;;;;;5097131;28;20509;-56
2022/09/02 11:04:01;;;;;;;3.77;2.23;;;25.10;99.90;;;;;;5096658;28;20952;-54
2022/09/02 11:06:32;;;;;;;2.97;2.67;;;24.90;99.90;;;;;;5097302;28;21017;-54
2022/09/02 11:09:08;;;;;;;2.93;2.73;;;24.80;99.90;;;;;;5096324;28;20460;-55
2022/09/02 11:11:41;;;;;;;2.53;2.33;;;25.20;99.90;;;;;;5095099;28;20853;-57
2022/09/02 11:14:17;;;;;;;2.47;2.27;;;25.60;99.90;;;;;;5096101;28;20460;-59
2022/09/02 11:16:51;;;;;;;3.97;2.80;;;26.00;99.90;;;;;;5096806;28;20525;-56
2022/09/02 11:19:23;;;;;;;2.60;2.40;;;26.90;99.90;;;;;;5096838;28;20484;-59
2022/09/02 11:22:01;;;;;;;2.67;2.47;;;27.40;99.90;;;;;;5096145;28;20468;-59
2022/09/02 11:24:32;;;;;;;2.47;2.33;;;27.90;99.90;;;;;;5093663;28;20917;-58
2022/09/02 11:27:07;;;;;;;3.23;1.93;;;28.10;99.90;;;;;;5095916;28;20558;-57
2022/09/02 11:29:40;;;;;;;3.13;2.40;;;28.10;99.90;;;;;;5094929;28;20525;-59
2022/09/02 11:32:18;;;;;;;2.60;2.40;;;28.30;99.90;;;;;;5093958;28;20464;-57
2022/09/02 11:34:47;;;;;;;2.10;2.00;;;28.20;99.90;;;;;;5092818;28;20460;-52
2022/09/02 11:37:28;;;;;;;5.93;2.27;;;27.80;99.90;;;;;;5095212;28;20767;-54
2022/09/02 11:40:00;;;;;;;3.77;2.67;;;27.40;99.90;;;;;;5095481;28;20480;-52
2022/09/02 11:42:53;;;;;;;2.20;2.10;;;27.10;99.90;;;;;;5092958;28;20530;-56
2022/09/02 11:45:32;;;;;;;2.27;2.13;;;27.00;99.90;;;;;;5095830;28;20480;-57
2022/09/02 11:48:31;;;;;;;2.07;1.93;;;27.30;99.90;;;;;;5095885;28;20858;-53
2022/09/02 11:51:23;;;;;;;2.50;2.30;;;27.30;99.90;;;;;;5092449;28;20485;-51
2022/09/02 11:53:53;;;;;;;2.37;2.20;;;27.10;99.90;;;;;;5095569;28;20472;-53
2022/09/02 11:56:25;;;;;;;3.37;2.60;;;26.90;99.90;;;;;;5094596;28;20555;-56
2022/09/02 11:58:56;;;;;;;2.70;2.40;;;26.80;99.90;;;;;;5094673;28;20531;-55
2022/09/02 12:01:33;;;;;;;2.00;1.80;;;26.50;99.90;;;;;;5095651;28;20801;-51
2022/09/02 12:04:05;;;;;;;2.40;2.13;;;26.00;99.90;;;;;;5093752;28;20571;-59
2022/09/02 12:06:33;;;;;;;2.03;1.93;;;26.30;99.90;;;;;;5075964;28;20439;-58
2022/09/02 12:09:08;;;;;;;2.60;2.40;;;26.50;99.90;;;;;;5075408;28;20461;-52
2022/09/02 12:11:49;;;;;;;2.30;2.10;;;27.40;99.90;;;;;;5075819;28;20440;-56
2022/09/02 12:15:05;;;;;;;2.80;2.23;;;28.60;99.90;;;;;;5076161;28;20500;-54
2022/09/02 12:18:07;;;;;;;2.37;2.23;;;29.00;99.90;;;;;;5077042;28;20464;-58
2022/09/02 12:21:06;;;;;;;2.50;2.30;;;28.50;99.90;;;;;;5081827;28;20503;-58
2022/09/02 12:24:23;;;;;;;2.37;2.17;;;27.40;99.90;;;;;;5046061;28;20549;-55
2022/09/02 12:27:22;;;;;;;2.77;2.57;;;27.00;99.90;;;;;;5096116;28;20496;-57
2022/09/02 12:29:51;;;;;;;2.57;2.37;;;26.80;99.90;;;;;;5094394;28;20959;-55
2022/09/02 12:33:03;;;;;;;3.13;2.27;;;26.80;99.90;;;;;;5095950;28;20448;-55
2022/09/02 12:35:52;;;;;;;3.77;2.63;;;26.60;99.90;;;;;;5093360;28;20521;-55
2022/09/02 12:38:26;;;;;;;2.53;2.33;;;26.30;99.90;;;;;;5094596;28;20535;-57
2022/09/02 12:41:00;;;;;;;3.20;3.00;;;25.90;99.90;;;;;;5093213;28;20875;-58
2022/09/02 12:43:33;;;;;;;3.77;2.20;;;25.60;99.90;;;;;;5094723;28;20549;-58
2022/09/02 12:46:13;;;;;;;2.70;2.50;;;25.70;99.90;;;;;;5095501;28;20551;-55
2022/09/02 12:48:45;;;;;;;2.57;2.37;;;25.70;99.90;;;;;;5097191;28;20460;-55
2022/09/02 12:51:50;;;;;;;2.47;2.27;;;25.70;99.90;;;;;;5096263;28;20488;-56
2022/09/02 12:54:19;;;;;;;2.30;2.10;;;25.90;99.90;;;;;;5094380;28;20562;-59
2022/09/02 12:56:50;;;;;;;2.57;2.23;;;26.70;99.90;;;;;;5094547;28;20456;-55
2022/09/02 12:59:28;;;;;;;2.20;2.00;;;27.10;99.90;;;;;;5093941;28;20513;-55
2022/09/02 13:02:09;;;;;;;3.20;2.40;;;26.70;99.90;;;;;;5093803;28;20456;-56
2022/09/02 13:04:42;;;;;;;2.37;2.27;;;26.40;99.90;;;;;;5091442;28;20582;-56
2022/09/02 13:07:52;;;;;;;3.40;2.50;;;27.00;99.90;;;;;;5090818;28;20555;-56
2022/09/02 13:10:48;;;;;;;2.30;2.10;;;28.30;99.90;;;;;;5075905;28;20558;-59
2022/09/02 13:14:00;;;;;;;2.60;2.40;;;29.20;99.90;;;;;;5094652;28;20957;-54
2022/09/02 13:16:39;;;;;;;2.63;2.43;;;29.60;99.90;;;;;;5074756;28;20460;-58
2022/09/02 13:19:43;;;;;;;2.60;2.40;;;29.10;99.90;;;;;;5096838;28;20538;-57
2022/09/02 13:22:36;;;;;;;3.30;3.00;;;29.00;99.90;;;;;;5099358;28;20452;-50
2022/09/02 13:25:30;;;;;;;2.73;2.53;;;29.40;99.90;;;;;;5099064;28;20470;-55
2022/09/02 13:28:30;;;;;;;4.43;2.23;;;29.90;99.90;;;;;;5099734;28;20517;-53
2022/09/02 13:31:20;;;;;;;2.43;2.23;;;30.50;99.90;;;;;;5099348;28;20471;-50
2022/09/02 13:33:58;;;;;;;2.37;2.17;;;30.40;99.90;;;;;;5099414;28;20468;-53
2022/09/02 13:36:34;;;;;;;3.27;3.07;;;29.90;99.90;;;;;;5099802;28;20495;-51
2022/09/02 13:39:13;;;;;;;2.47;2.27;;;29.70;99.90;;;;;;5099116;28;20558;-53
2022/09/02 13:41:40;;;;;;;2.40;2.17;;;29.70;99.90;;;;;;5098135;28;20531;-54
2022/09/02 13:44:10;;;;;;;3.20;2.63;;;29.80;99.90;;;;;;5098499;28;20872;-50
2022/09/02 13:46:45;;;;;;;2.90;2.70;;;29.40;99.90;;;;;;5097399;28;20439;-56
2022/09/02 13:49:21;;;;;;;4.33;3.03;;;29.10;99.90;;;;;;5098739;28;20455;-52
2022/09/02 13:51:54;;;;;;;5.17;3.17;;;29.00;99.90;;;;;;5096415;28;20484;-54
2022/09/02 13:54:28;;;;;;;2.90;2.53;;;29.10;99.90;;;;;;5098355;28;20892;-59
2022/09/02 13:56:56;;;;;;;2.57;2.37;;;29.50;99.90;;;;;;5096833;28;20510;-50
2022/09/02 13:59:40;;;;;;;2.47;2.27;;;29.60;99.90;;;;;;5098261;28;20522;-50
2022/09/02 14:02:19;;;;;;;2.80;2.00;;;29.60;99.90;;;;;;5098273;28;20893;-56
2022/09/02 14:04:53;;;;;;;2.57;1.90;;;29.60;99.90;;;;;;5097683;28;21042;-51
2022/09/02 14:07:30;;;;;;;4.00;2.33;;;29.50;99.90;;;;;;5098764;28;20466;-50
2022/09/02 14:10:08;;;;;;;3.43;2.33;;;29.10;99.90;;;;;;5099386;28;20904;-52
2022/09/02 14:12:38;;;;;;;3.40;2.60;;;29.20;99.90;;;;;;5099196;28;20513;-55
2022/09/02 14:15:09;;;;;;;2.53;2.30;;;29.40;99.90;;;;;;5098377;28;20559;-61
2022/09/02 14:17:37;;;;;;;2.20;2.00;;;29.40;99.90;;;;;;5098608;28;20461;-54
2022/09/02 14:20:18;;;;;;;2.80;2.53;;;29.30;99.90;;;;;;5098223;28;20461;-51
2022/09/02 14:22:56;;;;;;;2.50;2.30;;;29.70;99.90;;;;;;5096982;28;20460;-57
2022/09/02 14:25:25;;;;;;;2.30;2.10;;;30.00;99.90;;;;;;5097825;28;20552;-54
2022/09/02 14:27:54;;;;;;;2.83;2.07;;;29.90;99.90;;;;;;5098562;28;20439;-53
2022/09/02 14:30:35;;;;;;;4.73;2.40;;;29.80;99.90;;;;;;5098472;28;20500;-55
2022/09/02 14:33:37;;;;;;;5.13;2.53;;;29.70;99.90;;;;;;5097695;28;20505;-56
2022/09/02 14:36:08;;;;;;;2.27;2.07;;;30.00;99.90;;;;;;5098509;28;20496;-58
2022/09/02 14:38:50;;;;;;;2.30;2.10;;;30.50;99.90;;;;;;5099052;28;20466;-56
2022/09/02 14:41:23;;;;;;;2.90;2.50;;;30.40;99.90;;;;;;5098483;28;20500;-57
2022/09/02 14:43:55;;;;;;;2.40;2.20;;;30.20;99.90;;;;;;5098045;28;20541;-54
2022/09/02 14:46:27;;;;;;;3.20;3.00;;;30.40;99.90;;;;;;5097805;28;20555;-52
2022/09/02 14:49:02;;;;;;;2.43;2.33;;;30.20;99.90;;;;;;5095299;28;20559;-56
2022/09/02 14:51:37;;;;;;;3.53;2.70;;;30.30;99.90;;;;;;5077111;28;20558;-59
2022/09/02 14:54:06;;;;;;;6.33;2.70;;;29.70;99.90;;;;;;5075536;28;20917;-54
2022/09/02 14:56:54;;;;;;;2.67;2.47;;;29.00;99.90;;;;;;5084000;28;20475;-57
2022/09/02 14:59:24;;;;;;;2.80;2.57;;;29.10;99.90;;;;;;5097227;28;20559;-58
2022/09/02 15:01:56;;;;;;;2.93;2.73;;;29.40;99.90;;;;;;5095064;28;20478;-56
2022/09/02 15:04:28;;;;;;;2.50;2.30;;;29.60;99.90;;;;;;5098155;28;20581;-51
2022/09/02 15:06:58;;;;;;;4.57;2.33;;;29.50;99.90;;;;;;5097844;28;20824;-53
2022/09/02 15:09:29;;;;;;;2.70;2.50;;;29.30;99.90;;;;;;5096744;28;20529;-57
2022/09/02 15:11:59;;;;;;;3.10;2.67;;;29.00;99.90;;;;;;5097588;28;20907;-53
2022/09/02 15:14:27;;;;;;;2.80;2.43;;;29.00;99.90;;;;;;5097280;28;20464;-53
2022/09/02 15:16:54;;;;;;;2.60;2.20;;;29.10;99.90;;;;;;5097206;28;20466;-50
2022/09/02 15:19:22;;;;;;;3.80;2.63;;;29.10;99.90;;;;;;5096586;28;20770;-51
2022/09/02 15:21:49;;;;;;;2.50;2.30;;;29.20;99.90;;;;;;5097510;28;20563;-57
2022/09/02 15:24:18;;;;;;;2.60;2.37;;;28.90;99.90;;;;;;5097943;28;20586;-56
2022/09/02 15:26:46;;;;;;;2.63;2.43;;;28.20;99.90;;;;;;5097259;28;20457;-51
2022/09/02 15:29:18;;;;;;;2.87;2.67;;;27.90;99.90;;;;;;5097320;28;20460;-54
2022/09/02 15:31:45;;;;;;;3.00;2.80;;;27.70;99.90;;;;;;5094543;28;20708;-59
2022/09/02 15:34:12;;;;;;;2.70;2.50;;;27.60;99.90;;;;;;5096722;28;20949;-58
2022/09/02 15:36:42;;;;;;;5.53;2.97;;;27.60;99.90;;;;;;5097142;28;20849;-55
2022/09/02 15:39:12;;;;;;;3.17;2.80;;;27.40;99.90;;;;;;5097384;28;20487;-58
2022/09/02 15:41:44;;;;;;;4.03;2.53;;;27.40;99.90;;;;;;5096521;28;20460;-58
2022/09/02 15:44:11;;;;;;;2.80;2.60;;;27.20;99.90;;;;;;5095773;28;20491;-58
2022/09/02 15:46:39;;;;;;;2.67;2.40;;;26.80;99.90;;;;;;5097638;28;20893;-58
2022/09/02 15:49:11;;;;;;;2.57;2.37;;;26.70;99.90;;;;;;5096834;28;20783;-58
2022/09/02 15:51:46;;;;;;;3.03;2.73;;;26.80;99.90;;;;;;5097250;28;20490;-57
2022/09/02 15:54:16;;;;;;;3.33;3.03;;;26.90;99.90;;;;;;5096371;28;20881;-54
2022/09/02 15:56:46;;;;;;;2.87;2.67;;;26.90;99.90;;;;;;5076418;28;20518;-58
2022/09/02 15:59:16;;;;;;;2.97;2.77;;;26.80;99.90;;;;;;5083464;28;20467;-56
2022/09/02 16:01:46;;;;;;;4.60;2.70;;;26.70;99.90;;;;;;5096413;28;20951;-58
2022/09/02 16:04:14;;;;;;;4.40;2.90;;;26.60;99.90;;;;;;5094340;28;21002;-52
2022/09/02 16:06:47;;;;;;;5.10;2.63;;;26.40;99.90;;;;;;5094247;28;20464;-56
2022/09/02 16:09:16;;;;;;;15.10;3.43;;;26.10;99.90;;;;;;5094848;28;20461;-53
2022/09/02 16:11:47;;;;;;;2.50;2.30;;;26.10;99.90;;;;;;5093555;28;20533;-57
2022/09/02 16:14:18;;;;;;;2.90;2.63;;;26.10;99.90;;;;;;5095419;28;20449;-56
2022/09/02 16:16:48;;;;;;;3.30;3.00;;;26.10;99.90;;;;;;5091937;28;20452;-54
2022/09/02 16:19:15;;;;;;;3.07;2.40;;;26.10;99.90;;;;;;5092889;28;20980;-58
2022/09/02 16:21:43;;;;;;;3.33;2.10;;;26.20;99.90;;;;;;5090857;28;20559;-58
2022/09/02 16:24:10;;;;;;;2.70;2.50;;;26.10;99.90;;;;;;5095329;28;20928;-58
2022/09/02 16:26:40;;;;;;;2.40;2.20;;;26.30;99.90;;;;;;5096446;28;20555;-48
2022/09/02 16:29:13;;;;;;;2.50;2.30;;;26.40;99.90;;;;;;5096260;28;20802;-49
2022/09/02 16:31:41;;;;;;;7.03;2.63;;;26.30;99.90;;;;;;5096524;28;20443;-50
2022/09/02 16:34:16;;;;;;;3.60;2.13;;;26.10;99.90;;;;;;5096771;28;20466;-50
2022/09/02 16:36:45;;;;;;;2.67;2.47;;;25.90;99.90;;;;;;5097000;28;20483;-49
2022/09/02 16:39:14;;;;;;;3.30;2.57;;;25.80;99.90;;;;;;5096554;28;20464;-48
2022/09/02 16:41:43;;;;;;;5.30;2.90;;;25.60;99.90;;;;;;5096390;28;20466;-49
2022/09/02 16:44:15;;;;;;;2.00;1.90;;;25.50;99.90;;;;;;5099836;28;20762;-49
2022/09/02 16:46:45;;;;;;;3.43;3.13;;;25.50;99.90;;;;;;5101047;28;20465;-49
2022/09/02 16:49:17;;;;;;;7.57;2.73;;;25.60;99.90;;;;;;5099632;28;20567;-48
2022/09/02 16:51:49;;;;;;;2.53;2.33;;;25.50;99.90;;;;;;5099745;28;20527;-49
2022/09/02 16:54:17;;;;;;;3.10;1.90;;;25.50;99.90;;;;;;5099860;28;20431;-48
2022/09/02 16:56:45;;;;;;;3.43;2.53;;;25.60;99.90;;;;;;5099721;28;20427;-51
2022/09/02 16:59:18;;;;;;;2.63;2.43;;;25.50;99.90;;;;;;5099414;28;20439;-48
2022/09/02 17:01:45;;;;;;;5.03;2.67;;;25.30;99.90;;;;;;5099561;28;20442;-48
2022/09/02 17:04:13;;;;;;;3.20;2.53;;;25.30;99.90;;;;;;5098910;28;20492;-48
2022/09/02 17:06:43;;;;;;;3.47;2.30;;;25.20;99.90;;;;;;5099357;28;20434;-48
2022/09/02 17:09:15;;;;;;;2.50;2.13;;;25.20;99.90;;;;;;5099988;28;20467;-53
2022/09/02 17:11:47;;;;;;;5.13;2.23;;;25.10;99.90;;;;;;5100001;28;20460;-51
2022/09/02 17:14:20;;;;;;;3.07;2.50;;;25.10;99.90;;;;;;5100141;28;20496;-47
2022/09/02 17:16:50;;;;;;;3.80;2.40;;;25.10;99.90;;;;;;5099799;28;20835;-49
2022/09/02 17:19:23;;;;;;;3.10;2.30;;;24.90;99.90;;;;;;5099274;28;20574;-54
2022/09/02 17:21:51;;;;;;;3.40;2.00;;;24.80;99.90;;;;;;5100020;28;20460;-55
2022/09/02 17:24:21;;;;;;;3.40;3.10;;;24.60;99.90;;;;;;5086544;28;20580;-53
2022/09/02 17:26:51;;;;;;;2.70;2.50;;;24.50;99.90;;;;;;5078277;28;20540;-54
2022/09/02 17:29:23;;;;;;;3.93;2.53;;;24.30;99.90;;;;;;5078817;28;20534;-54
2022/09/02 17:31:57;;;;;;;2.40;2.20;;;24.20;99.90;;;;;;5078399;28;20511;-55
2022/09/02 17:34:27;;;;;;;2.73;2.53;;;24.10;99.90;;;;;;5078362;28;20530;-55
2022/09/02 17:36:54;;;;;;;2.67;2.30;;;24.10;99.90;;;;;;5078445;28;20461;-58
2022/09/02 17:39:27;;;;;;;4.03;2.30;;;23.80;99.90;;;;;;5077795;28;20991;-55
2022/09/02 17:41:54;;;;;;;2.30;2.10;;;23.70;99.90;;;;;;5079158;28;20468;-55
2022/09/02 17:44:24;;;;;;;3.00;2.43;;;23.60;99.90;;;;;;5079140;28;20886;-55
2022/09/02 17:46:55;;;;;;;2.90;2.67;;;23.50;99.90;;;;;;5079014;28;20544;-55
2022/09/02 17:49:25;;;;;;;2.83;2.63;;;23.50;99.90;;;;;;5079445;28;20468;-58
2022/09/02 17:51:52;;;;;;;6.40;2.93;;;23.40;99.90;;;;;;5079041;28;20921;-57
2022/09/02 17:54:21;;;;;;;3.50;2.50;;;23.40;99.90;;;;;;5078171;28;20555;-53
2022/09/02 17:57:24;;;;;;;4.23;3.13;;;23.40;99.90;;;;;;5078796;28;20504;-52
2022/09/02 18:00:14;;;;;;;3.30;2.53;;;23.30;99.90;;;;;;5090265;28;20467;-55
2022/09/02 18:03:24;;;;;;;4.37;3.10;;;23.20;99.90;;;;;;5076827;28;20469;-56
2022/09/02 18:06:11;;;;;;;3.90;2.70;;;23.00;99.90;;;;;;5059770;28;20483;-58
2022/09/02 18:08:46;;;;;;;6.20;2.30;;;22.90;99.90;;;;;;5078531;28;20453;-56
2022/09/02 18:11:13;;;;;;;4.90;2.93;;;22.80;99.90;;;;;;5079103;28;20427;-54
2022/09/02 18:13:51;;;;;;;3.30;3.00;;;22.70;99.90;;;;;;5078707;28;20461;-51
2022/09/02 18:16:32;;;;;;;5.57;3.27;;;22.50;99.90;;;;;;5079213;28;20559;-55
2022/09/02 18:19:23;;;;;;;11.83;3.10;;;22.50;99.90;;;;;;5078514;28;20766;-54
2022/09/02 18:22:04;;;;;;;11.73;3.93;;;22.40;99.90;;;;;;5078274;28;20469;-57
2022/09/02 18:24:53;;;;;;;4.43;3.13;;;22.30;99.90;;;;;;5081123;28;20457;-55
2022/09/02 18:27:31;;;;;;;6.70;3.83;;;22.20;99.90;;;;;;5088123;28;20499;-56
2022/09/02 18:30:05;;;;;;;5.37;3.73;;;22.00;99.90;;;;;;5093270;28;20460;-51
2022/09/02 18:32:54;;;;;;;6.70;3.77;;;21.80;99.90;;;;;;5097699;28;20435;-55
2022/09/02 18:35:30;;;;;;;3.83;3.43;;;21.80;99.90;;;;;;5096133;28;20764;-55
2022/09/02 18:38:06;;;;;;;4.03;3.10;;;21.90;99.90;;;;;;5091722;28;20901;-52
2022/09/02 18:40:42;;;;;;;4.47;3.23;;;21.80;99.90;;;;;;5092343;28;22188;-55
2022/09/02 18:43:19;;;;;;;5.93;3.30;;;21.70;99.90;;;;;;5092232;28;20439;-58
2022/09/02 18:45:49;;;;;;;3.73;3.30;;;21.50;99.90;;;;;;5096261;28;20951;-52
2022/09/02 18:48:21;;;;;;;4.00;3.70;;;21.40;99.90;;;;;;5098342;28;20566;-52
2022/09/02 18:50:53;;;;;;;3.00;2.80;;;21.20;99.90;;;;;;5095401;28;20531;-54
2022/09/02 18:53:24;;;;;;;4.50;2.90;;;21.00;99.90;;;;;;5104259;28;20464;-56
2022/09/02 18:55:53;;;;;;;2.90;2.70;;;20.90;99.90;;;;;;5095850;28;20457;-53